createdAt,value
2019-03-28T00:00:10.090Z,16.50
2019-03-28T00:01:10.081Z,16.60
2019-03-28T00:02:10.077Z,14.30
2019-03-28T00:03:10.067Z,15.80
2019-03-28T00:04:10.063Z,18.10
2019-03-28T00:05:10.058Z,14.60
2019-03-28T00:06:10.047Z,15.50
2019-03-28T00:07:10.040Z,16.80
2019-03-28T00:08:12.489Z,21.70
2019-03-28T00:09:10.025Z,14.30
2019-03-28T00:10:10.126Z,18.90
2019-03-28T00:11:10.010Z,17.50
2019-03-28T00:12:09.999Z,17.20
2019-03-28T00:13:09.993Z,17.60
2019-03-28T00:14:09.986Z,17.30
2019-03-28T00:15:09.979Z,16.00
2019-03-28T00:16:09.976Z,16.40
2019-03-28T00:17:09.970Z,14.90
2019-03-28T00:18:09.963Z,16.00
2019-03-28T00:19:09.952Z,14.20
2019-03-28T00:20:10.149Z,16.70
2019-03-28T00:21:09.934Z,14.40
2019-03-28T00:22:09.924Z,15.60
2019-03-28T00:23:09.916Z,13.60
2019-03-28T00:24:09.913Z,16.30
2019-03-28T00:25:09.908Z,16.70
2019-03-28T00:26:09.895Z,16.00
2019-03-28T00:27:09.886Z,17.10
2019-03-28T00:28:09.884Z,19.30
2019-03-28T00:29:09.878Z,19.60
2019-03-28T00:30:09.872Z,15.00
2019-03-28T00:31:09.863Z,14.90
2019-03-28T00:32:09.852Z,17.50
2019-03-28T00:33:09.844Z,14.80
2019-03-28T00:34:10.235Z,14.80
2019-03-28T00:35:09.830Z,15.20
2019-03-28T00:36:09.826Z,16.50
2019-03-28T00:37:09.819Z,18.60
2019-03-28T00:38:09.811Z,15.00
2019-03-28T00:39:09.801Z,16.10
2019-03-28T00:40:09.790Z,17.70
2019-03-28T00:41:09.782Z,15.30
2019-03-28T00:42:10.266Z,15.60
2019-03-28T00:43:09.771Z,16.40
2019-03-28T00:44:09.760Z,16.80
2019-03-28T00:45:09.751Z,16.70
2019-03-28T00:46:09.747Z,17.70
2019-03-28T00:47:09.738Z,17.40
2019-03-28T00:48:09.738Z,17.30
2019-03-28T00:49:09.729Z,16.50
2019-03-28T00:50:09.721Z,18.20
2019-03-28T00:51:09.711Z,16.00
2019-03-28T00:52:09.700Z,16.30
2019-03-28T00:53:09.691Z,14.30
2019-03-28T00:54:09.686Z,16.10
2019-03-28T00:55:09.682Z,16.50
2019-03-28T00:56:09.676Z,17.10
2019-03-28T00:57:09.668Z,14.00
2019-03-28T00:58:09.657Z,18.40
2019-03-28T00:59:09.647Z,14.20
2019-03-28T01:00:09.647Z,17.60
2019-03-28T01:01:09.639Z,13.70
2019-03-28T01:02:09.628Z,16.60
2019-03-28T01:03:09.620Z,16.80
2019-03-28T01:04:09.606Z,14.20
2019-03-28T01:05:09.601Z,17.20
2019-03-28T01:06:09.593Z,17.00
2019-03-28T01:07:09.585Z,15.90
2019-03-28T01:08:09.581Z,15.80
2019-03-28T01:09:09.574Z,13.40
2019-03-28T01:10:09.570Z,15.30
2019-03-28T01:11:09.561Z,17.00
2019-03-28T01:12:09.552Z,14.60
2019-03-28T01:13:09.542Z,15.20
2019-03-28T01:14:09.539Z,17.60
2019-03-28T01:15:09.531Z,19.20
2019-03-28T01:16:09.520Z,18.10
2019-03-28T01:17:09.510Z,17.10
2019-03-28T01:18:09.500Z,16.70
2019-03-28T01:19:09.700Z,16.70
2019-03-28T01:20:09.489Z,18.00
2019-03-28T01:21:09.481Z,19.00
2019-03-28T01:22:09.474Z,17.90
2019-03-28T01:23:09.465Z,19.50
2019-03-28T01:24:09.453Z,17.80
2019-03-28T01:25:09.446Z,16.10
2019-03-28T01:26:09.442Z,16.00
2019-03-28T01:27:09.435Z,14.50
2019-03-28T01:28:09.430Z,16.20
2019-03-28T01:29:09.422Z,18.80
2019-03-28T01:30:09.411Z,17.40
2019-03-28T01:31:10.244Z,16.50
2019-03-28T01:32:09.398Z,18.10
2019-03-28T01:33:09.391Z,17.90
2019-03-28T01:34:09.383Z,13.40
2019-03-28T01:35:09.372Z,17.70
2019-03-28T01:36:09.361Z,15.20
2019-03-28T01:37:09.353Z,16.40
2019-03-28T01:38:09.346Z,16.60
2019-03-28T01:39:10.154Z,15.70
2019-03-28T01:40:09.333Z,12.40
2019-03-28T01:41:09.327Z,16.90
2019-03-28T01:42:09.321Z,14.70
2019-03-28T01:43:09.313Z,14.90
2019-03-28T01:44:09.302Z,14.10
2019-03-28T01:45:09.296Z,13.60
2019-03-28T01:46:09.291Z,16.50
2019-03-28T01:47:09.281Z,17.70
2019-03-28T01:48:09.272Z,14.40
2019-03-28T01:49:09.263Z,16.30
2019-03-28T01:50:09.253Z,18.60
2019-03-28T01:51:09.245Z,14.30
2019-03-28T01:52:09.241Z,20.70
2019-03-28T01:53:09.234Z,14.50
2019-03-28T01:54:09.234Z,17.80
2019-03-28T01:55:09.219Z,15.40
2019-03-28T01:56:09.210Z,15.10
2019-03-28T01:57:11.294Z,14.90
2019-03-28T01:58:09.190Z,15.30
2019-03-28T01:59:09.182Z,16.20
2019-03-28T02:00:09.178Z,14.50
2019-03-28T02:01:09.175Z,14.90
2019-03-28T02:02:09.160Z,16.60
2019-03-28T02:03:09.152Z,14.60
2019-03-28T02:04:09.147Z,15.40
2019-03-28T02:05:09.140Z,17.60
2019-03-28T02:06:09.262Z,17.90
2019-03-28T02:07:09.128Z,19.30
2019-03-28T02:08:09.113Z,15.00
2019-03-28T02:09:09.107Z,16.30
2019-03-28T02:10:09.099Z,14.40
2019-03-28T02:11:09.091Z,15.40
2019-03-28T02:12:09.122Z,15.80
2019-03-28T02:13:09.081Z,15.30
2019-03-28T02:14:09.070Z,16.00
2019-03-28T02:15:09.061Z,16.00
2019-03-28T02:16:09.048Z,14.70
2019-03-28T02:17:09.040Z,14.20
2019-03-28T02:18:09.041Z,14.30
2019-03-28T02:19:09.028Z,14.00
2019-03-28T02:20:09.016Z,13.20
2019-03-28T02:21:09.690Z,18.00
2019-03-28T02:22:09.007Z,13.80
2019-03-28T02:23:08.995Z,14.10
2019-03-28T02:24:08.991Z,16.80
2019-03-28T02:25:08.984Z,15.00
2019-03-28T02:26:09.169Z,15.20
2019-03-28T02:27:08.968Z,14.40
2019-03-28T02:28:08.956Z,14.30
2019-03-28T02:29:08.949Z,16.00
2019-03-28T02:30:08.939Z,15.40
2019-03-28T02:31:08.936Z,15.90
2019-03-28T02:32:08.950Z,13.20
2019-03-28T02:33:08.919Z,15.60
2019-03-28T02:34:08.973Z,18.30
2019-03-28T02:35:08.899Z,13.60
2019-03-28T02:36:08.928Z,15.30
2019-03-28T02:37:08.888Z,16.40
2019-03-28T02:38:08.886Z,15.10
2019-03-28T02:39:08.880Z,15.20
2019-03-28T02:40:08.873Z,14.00
2019-03-28T02:41:09.007Z,14.40
2019-03-28T02:42:08.855Z,13.50
2019-03-28T02:43:08.839Z,16.30
2019-03-28T02:44:08.835Z,13.80
2019-03-28T02:45:08.827Z,12.90
2019-03-28T02:46:08.820Z,15.80
2019-03-28T02:47:08.815Z,15.30
2019-03-28T02:48:08.804Z,16.30
2019-03-28T02:49:08.795Z,13.80
2019-03-28T02:50:08.787Z,13.90
2019-03-28T02:51:08.776Z,13.90
2019-03-28T02:52:08.767Z,16.40
2019-03-28T02:53:08.764Z,14.00
2019-03-28T02:54:08.751Z,16.30
2019-03-28T02:55:08.743Z,14.80
2019-03-28T02:56:08.738Z,14.10
2019-03-28T02:57:08.737Z,16.30
2019-03-28T02:58:08.723Z,15.30
2019-03-28T02:59:08.722Z,11.40
2019-03-28T03:00:08.708Z,13.60
2019-03-28T03:01:08.697Z,13.20
2019-03-28T03:02:08.701Z,13.70
2019-03-28T03:03:08.692Z,12.60
2019-03-28T03:04:08.674Z,12.70
2019-03-28T03:05:08.666Z,16.20
2019-03-28T03:06:08.663Z,13.30
2019-03-28T03:07:08.644Z,12.70
2019-03-28T03:08:08.654Z,11.60
2019-03-28T03:09:08.635Z,15.60
2019-03-28T03:10:08.629Z,15.00
2019-03-28T03:11:09.547Z,15.00
2019-03-28T03:12:08.609Z,13.70
2019-03-28T03:13:08.606Z,12.10
2019-03-28T03:14:08.600Z,13.60
2019-03-28T03:15:08.587Z,16.70
2019-03-28T03:16:08.582Z,15.80
2019-03-28T03:17:08.577Z,15.10
2019-03-28T03:18:08.564Z,14.50
2019-03-28T03:19:08.555Z,15.30
2019-03-28T03:20:08.545Z,13.00
2019-03-28T03:21:09.872Z,14.30
2019-03-28T03:22:08.533Z,15.70
2019-03-28T03:23:08.531Z,13.80
2019-03-28T03:24:08.518Z,13.30
2019-03-28T03:25:08.515Z,13.60
2019-03-28T03:26:08.504Z,13.60
2019-03-28T03:27:08.491Z,12.40
2019-03-28T03:28:08.488Z,12.40
2019-03-28T03:29:08.486Z,15.40
2019-03-28T03:30:08.511Z,15.00
2019-03-28T03:31:08.479Z,14.30
2019-03-28T03:32:08.474Z,13.70
2019-03-28T03:33:09.036Z,12.90
2019-03-28T03:34:08.447Z,13.70
2019-03-28T03:35:08.441Z,13.50
2019-03-28T03:36:08.422Z,14.20
2019-03-28T03:37:08.415Z,16.90
2019-03-28T03:38:08.402Z,16.70
2019-03-28T03:39:08.398Z,15.70
2019-03-28T03:40:08.394Z,13.70
2019-03-28T03:41:08.389Z,13.30
2019-03-28T03:42:08.378Z,14.30
2019-03-28T03:43:08.376Z,15.60
2019-03-28T03:44:08.374Z,14.40
2019-03-28T03:45:09.332Z,11.70
2019-03-28T03:46:08.352Z,14.80
2019-03-28T03:47:08.333Z,15.30
2019-03-28T03:48:08.332Z,16.60
2019-03-28T03:49:08.323Z,13.90
2019-03-28T03:50:08.313Z,15.10
2019-03-28T03:51:08.305Z,13.40
2019-03-28T03:52:08.294Z,14.60
2019-03-28T03:53:08.286Z,14.60
2019-03-28T03:54:08.286Z,14.60
2019-03-28T03:55:08.274Z,14.40
2019-03-28T03:56:08.261Z,12.00
2019-03-28T03:57:08.256Z,13.70
2019-03-28T03:58:16.146Z,14.60
2019-03-28T03:59:08.240Z,15.10
2019-03-28T04:00:08.235Z,14.00
2019-03-28T04:01:08.227Z,16.50
2019-03-28T04:02:08.221Z,13.20
2019-03-28T04:03:08.214Z,13.30
2019-03-28T04:04:08.199Z,16.70
2019-03-28T04:05:08.190Z,14.00
2019-03-28T04:06:08.186Z,12.90
2019-03-28T04:07:08.177Z,14.20
2019-03-28T04:08:08.175Z,15.50
2019-03-28T04:09:08.166Z,16.00
2019-03-28T04:10:08.155Z,18.00
2019-03-28T04:11:08.146Z,13.90
2019-03-28T04:12:08.149Z,13.20
2019-03-28T04:13:08.135Z,13.50
2019-03-28T04:14:08.130Z,13.50
2019-03-28T04:15:08.116Z,14.90
2019-03-28T04:16:08.104Z,12.60
2019-03-28T04:17:08.099Z,12.30
2019-03-28T04:18:08.093Z,16.10
2019-03-28T04:19:08.080Z,11.90
2019-03-28T04:20:08.075Z,12.40
2019-03-28T04:21:08.071Z,12.90
2019-03-28T04:22:08.237Z,16.20
2019-03-28T04:23:08.058Z,15.50
2019-03-28T04:24:08.044Z,12.80
2019-03-28T04:25:08.040Z,12.80
2019-03-28T04:26:08.042Z,11.20
2019-03-28T04:27:08.026Z,14.60
2019-03-28T04:28:08.013Z,14.70
2019-03-28T04:29:08.012Z,12.10
2019-03-28T04:30:07.995Z,13.40
2019-03-28T04:31:07.986Z,13.10
2019-03-28T04:32:07.984Z,13.30
2019-03-28T04:33:07.976Z,15.90
2019-03-28T04:34:09.524Z,15.20
2019-03-28T04:35:07.959Z,13.80
2019-03-28T04:36:07.947Z,14.90
2019-03-28T04:37:07.941Z,15.50
2019-03-28T04:38:07.936Z,17.30
2019-03-28T04:39:07.933Z,16.00
2019-03-28T04:40:08.659Z,15.20
2019-03-28T04:41:07.918Z,15.10
2019-03-28T04:42:07.901Z,13.40
2019-03-28T04:43:07.895Z,14.40
2019-03-28T04:44:07.891Z,15.00
2019-03-28T04:45:07.902Z,17.00
2019-03-28T04:46:07.872Z,17.40
2019-03-28T04:47:07.863Z,14.50
2019-03-28T04:48:07.854Z,14.60
2019-03-28T04:49:07.844Z,14.60
2019-03-28T04:50:07.842Z,14.00
2019-03-28T04:51:07.827Z,17.10
2019-03-28T04:52:07.825Z,14.80
2019-03-28T04:53:07.816Z,15.70
2019-03-28T04:54:09.886Z,15.90
2019-03-28T04:55:07.808Z,13.80
2019-03-28T04:56:07.791Z,12.70
2019-03-28T04:57:07.784Z,14.30
2019-03-28T04:58:07.779Z,15.10
2019-03-28T04:59:07.780Z,15.20
2019-03-28T05:00:07.758Z,18.80
2019-03-28T05:01:07.751Z,12.00
2019-03-28T05:02:07.741Z,15.60
2019-03-28T05:03:07.740Z,14.70
2019-03-28T05:04:07.732Z,13.60
2019-03-28T05:05:07.728Z,13.30
2019-03-28T05:06:07.722Z,13.80
2019-03-28T05:07:07.708Z,18.60
2019-03-28T05:08:08.366Z,13.70
2019-03-28T05:09:07.689Z,21.30
2019-03-28T05:10:07.678Z,15.20
2019-03-28T05:11:07.669Z,16.60
2019-03-28T05:12:07.666Z,17.70
2019-03-28T05:13:07.657Z,15.20
2019-03-28T05:14:07.646Z,14.20
2019-03-28T05:15:07.637Z,15.60
2019-03-28T05:16:07.633Z,17.60
2019-03-28T05:17:07.627Z,16.30
2019-03-28T05:18:07.621Z,16.20
2019-03-28T05:19:07.611Z,14.60
2019-03-28T05:20:07.599Z,19.00
2019-03-28T05:21:07.591Z,15.30
2019-03-28T05:22:07.595Z,15.90
2019-03-28T05:23:07.576Z,15.80
2019-03-28T05:24:07.573Z,14.00
2019-03-28T05:25:07.564Z,19.80
2019-03-28T05:26:07.554Z,15.90
2019-03-28T05:27:07.575Z,17.70
2019-03-28T05:28:07.533Z,13.30
2019-03-28T05:29:07.527Z,17.30
2019-03-28T05:30:07.522Z,18.50
2019-03-28T05:31:08.351Z,19.40
2019-03-28T05:32:07.502Z,14.00
2019-03-28T05:33:07.494Z,16.20
2019-03-28T05:34:08.357Z,15.40
2019-03-28T05:35:07.481Z,19.50
2019-03-28T05:36:07.476Z,17.30
2019-03-28T05:37:07.470Z,15.70
2019-03-28T05:38:07.462Z,19.90
2019-03-28T05:39:07.453Z,13.90
2019-03-28T05:40:07.450Z,18.10
2019-03-28T05:41:07.434Z,23.90
2019-03-28T05:42:07.424Z,17.30
2019-03-28T05:43:07.414Z,19.50
2019-03-28T05:44:07.411Z,18.10
2019-03-28T05:45:07.406Z,17.80
2019-03-28T05:46:07.392Z,17.80
2019-03-28T05:47:07.383Z,18.90
2019-03-28T05:48:07.381Z,16.40
2019-03-28T05:49:07.371Z,18.50
2019-03-28T05:50:07.366Z,14.80
2019-03-28T05:51:07.358Z,19.70
2019-03-28T05:52:07.346Z,15.00
2019-03-28T05:53:07.345Z,15.60
2019-03-28T05:54:07.333Z,16.80
2019-03-28T05:55:07.326Z,18.80
2019-03-28T05:56:07.318Z,16.90
2019-03-28T05:57:07.311Z,18.40
2019-03-28T05:58:09.578Z,15.90
2019-03-28T05:59:11.100Z,20.50
2019-03-28T06:00:07.281Z,22.80
2019-03-28T06:01:07.273Z,18.00
2019-03-28T06:02:07.271Z,23.70
2019-03-28T06:03:07.262Z,17.20
2019-03-28T06:04:07.250Z,20.20
2019-03-28T06:05:07.242Z,19.80
2019-03-28T06:06:07.238Z,19.50
2019-03-28T06:07:08.775Z,19.20
2019-03-28T06:08:07.227Z,19.20
2019-03-28T06:09:07.217Z,18.80
2019-03-28T06:10:07.210Z,20.20
2019-03-28T06:11:07.201Z,19.40
2019-03-28T06:12:07.187Z,22.50
2019-03-28T06:13:07.181Z,19.40
2019-03-28T06:14:07.177Z,21.00
2019-03-28T06:15:07.167Z,23.40
2019-03-28T06:16:07.165Z,23.40
2019-03-28T06:17:07.158Z,18.80
2019-03-28T06:18:07.147Z,19.60
2019-03-28T06:19:07.136Z,23.80
2019-03-28T06:20:07.133Z,19.00
2019-03-28T06:21:07.124Z,22.70
2019-03-28T06:22:07.119Z,18.40
2019-03-28T06:23:07.109Z,17.50
2019-03-28T06:24:07.095Z,18.60
2019-03-28T06:25:07.087Z,21.50
2019-03-28T06:26:07.080Z,18.10
2019-03-28T06:27:07.573Z,18.90
2019-03-28T06:28:07.069Z,18.00
2019-03-28T06:29:08.568Z,18.70
2019-03-28T06:30:07.056Z,20.80
2019-03-28T06:31:07.048Z,18.00
2019-03-28T06:32:07.036Z,16.50
2019-03-28T06:33:07.032Z,18.60
2019-03-28T06:34:07.025Z,17.90
2019-03-28T06:35:07.017Z,16.70
2019-03-28T06:36:07.005Z,21.00
2019-03-28T06:37:06.996Z,18.30
2019-03-28T06:38:06.986Z,18.80
2019-03-28T06:39:06.978Z,19.90
2019-03-28T06:40:06.977Z,16.50
2019-03-28T06:41:06.967Z,19.70
2019-03-28T06:42:06.961Z,22.00
2019-03-28T06:43:06.951Z,21.10
2019-03-28T06:44:06.941Z,18.40
2019-03-28T06:45:06.933Z,19.20
2019-03-28T06:46:06.927Z,21.10
2019-03-28T06:47:06.920Z,19.30
2019-03-28T06:48:06.917Z,23.10
2019-03-28T06:49:06.908Z,19.30
2019-03-28T06:50:06.899Z,19.50
2019-03-28T06:51:06.888Z,21.10
2019-03-28T06:52:06.887Z,20.10
2019-03-28T06:53:06.878Z,22.80
2019-03-28T06:54:06.869Z,25.10
2019-03-28T06:55:06.861Z,21.10
2019-03-28T06:56:06.848Z,20.70
2019-03-28T06:57:06.842Z,23.30
2019-03-28T06:58:06.835Z,21.90
2019-03-28T06:59:06.826Z,20.60
2019-03-28T07:00:06.906Z,22.00
2019-03-28T07:01:06.817Z,20.80
2019-03-28T07:02:06.811Z,22.40
2019-03-28T07:03:06.802Z,24.30
2019-03-28T07:04:06.791Z,22.60
2019-03-28T07:05:06.784Z,26.40
2019-03-28T07:06:06.783Z,21.60
2019-03-28T07:07:06.867Z,22.80
2019-03-28T07:08:06.763Z,20.50
2019-03-28T07:09:06.755Z,22.30
2019-03-28T07:10:06.747Z,29.30
2019-03-28T07:11:06.736Z,24.30
2019-03-28T07:12:06.733Z,21.60
2019-03-28T07:13:06.727Z,27.10
2019-03-28T07:14:06.715Z,23.80
2019-03-28T07:15:06.708Z,20.10
2019-03-28T07:16:06.707Z,25.40
2019-03-28T07:17:06.706Z,23.00
2019-03-28T07:18:06.699Z,24.50
2019-03-28T07:19:06.684Z,22.50
2019-03-28T07:20:09.073Z,21.10
2019-03-28T07:21:06.667Z,22.10
2019-03-28T07:22:06.664Z,23.20
2019-03-28T07:23:06.658Z,22.10
2019-03-28T07:24:06.717Z,23.20
2019-03-28T07:25:06.639Z,24.20
2019-03-28T07:26:06.629Z,25.50
2019-03-28T07:27:06.620Z,23.90
2019-03-28T07:28:06.747Z,27.00
2019-03-28T07:29:06.612Z,28.00
2019-03-28T07:30:06.606Z,24.40
2019-03-28T07:31:06.599Z,28.60
2019-03-28T07:32:06.589Z,22.10
2019-03-28T07:33:06.581Z,25.20
2019-03-28T07:34:06.576Z,22.10
2019-03-28T07:35:06.569Z,23.40
2019-03-28T07:36:06.569Z,24.30
2019-03-28T07:37:06.560Z,24.20
2019-03-28T07:38:06.550Z,26.10
2019-03-28T07:39:06.541Z,25.30
2019-03-28T07:40:06.542Z,25.40
2019-03-28T07:41:06.538Z,25.70
2019-03-28T07:42:06.524Z,22.40
2019-03-28T07:43:06.516Z,26.40
2019-03-28T07:44:06.505Z,23.00
2019-03-28T07:45:06.500Z,23.90
2019-03-28T07:46:06.492Z,28.50
2019-03-28T07:47:06.484Z,24.40
2019-03-28T07:48:06.483Z,25.20
2019-03-28T07:49:06.478Z,24.70
2019-03-28T07:50:06.472Z,25.70
2019-03-28T07:51:06.466Z,23.50
2019-03-28T07:52:06.455Z,26.70
2019-03-28T07:53:06.449Z,25.70
2019-03-28T07:54:06.448Z,25.60
2019-03-28T07:55:06.439Z,23.50
2019-03-28T07:56:06.429Z,26.00
2019-03-28T07:57:06.422Z,27.70
2019-03-28T07:58:07.657Z,25.80
2019-03-28T07:59:06.409Z,24.20
2019-03-28T08:00:06.407Z,25.30
2019-03-28T08:01:06.400Z,25.10
2019-03-28T08:02:06.392Z,25.60
2019-03-28T08:03:06.386Z,27.20
2019-03-28T08:04:06.376Z,25.10
2019-03-28T08:05:06.370Z,26.20
2019-03-28T08:06:06.365Z,24.00
2019-03-28T08:07:06.361Z,24.10
2019-03-28T08:08:06.359Z,23.20
2019-03-28T08:09:06.350Z,27.90
2019-03-28T08:10:06.343Z,24.50
2019-03-28T08:11:06.335Z,23.80
2019-03-28T08:12:06.335Z,22.90
2019-03-28T08:13:06.329Z,26.00
2019-03-28T08:14:06.321Z,27.50
2019-03-28T08:15:06.312Z,24.10
2019-03-28T08:16:06.302Z,23.50
2019-03-28T08:17:06.296Z,21.90
2019-03-28T08:18:06.292Z,29.40
2019-03-28T08:19:07.992Z,28.30
2019-03-28T08:20:06.284Z,23.50
2019-03-28T08:21:06.279Z,26.50
2019-03-28T08:22:06.272Z,23.80
2019-03-28T08:23:06.264Z,27.00
2019-03-28T08:24:06.260Z,24.30
2019-03-28T08:25:10.916Z,26.50
2019-03-28T08:26:06.248Z,22.00
2019-03-28T08:27:06.242Z,24.30
2019-03-28T08:28:06.232Z,25.10
2019-03-28T08:29:06.228Z,28.10
2019-03-28T08:30:17.651Z,25.40
2019-03-28T08:31:06.217Z,22.80
2019-03-28T08:32:06.217Z,28.80
2019-03-28T08:33:06.211Z,23.80
2019-03-28T08:34:06.208Z,24.30
2019-03-28T08:35:06.199Z,21.10
2019-03-28T08:36:06.192Z,23.70
2019-03-28T08:37:06.186Z,23.80
2019-03-28T08:38:09.580Z,22.00
2019-03-28T08:39:06.171Z,23.30
2019-03-28T08:40:06.169Z,22.10
2019-03-28T08:41:07.202Z,21.90
2019-03-28T08:42:06.155Z,21.40
2019-03-28T08:43:06.158Z,26.70
2019-03-28T08:44:07.407Z,22.70
2019-03-28T08:45:07.084Z,22.70
2019-03-28T08:46:08.761Z,24.80
2019-03-28T08:47:06.461Z,21.90
2019-03-28T08:48:06.124Z,26.80
2019-03-28T08:49:06.127Z,23.50
2019-03-28T08:50:06.115Z,24.50
2019-03-28T08:51:06.108Z,28.80
2019-03-28T08:52:06.108Z,25.60
2019-03-28T08:53:06.101Z,26.20
2019-03-28T08:54:06.096Z,23.60
2019-03-28T08:55:09.701Z,27.40
2019-03-28T08:56:06.082Z,30.40
2019-03-28T08:57:06.076Z,29.70
2019-03-28T08:58:06.075Z,33.20
2019-03-28T08:59:06.068Z,27.60
2019-03-28T09:00:06.058Z,29.50
2019-03-28T09:01:06.076Z,26.70
2019-03-28T09:02:06.049Z,28.00
2019-03-28T09:03:06.048Z,25.10
2019-03-28T09:04:06.045Z,26.30
2019-03-28T09:05:06.039Z,25.80
2019-03-28T09:06:06.032Z,24.30
2019-03-28T09:07:06.192Z,28.80
2019-03-28T09:08:06.018Z,27.10
2019-03-28T09:09:06.017Z,22.20
2019-03-28T09:10:06.004Z,24.80
2019-03-28T09:11:05.998Z,24.80
2019-03-28T09:12:05.999Z,29.20
2019-03-28T09:13:05.992Z,27.90
2019-03-28T09:14:05.983Z,25.10
2019-03-28T09:15:05.981Z,25.80
2019-03-28T09:16:05.980Z,26.10
2019-03-28T09:17:05.973Z,25.80
2019-03-28T09:18:05.969Z,23.80
2019-03-28T09:19:05.965Z,25.10
2019-03-28T09:20:05.955Z,26.20
2019-03-28T09:21:05.949Z,25.80
2019-03-28T09:22:05.942Z,22.70
2019-03-28T09:23:05.935Z,27.70
2019-03-28T09:24:05.942Z,19.70
2019-03-28T09:25:05.930Z,17.80
2019-03-28T09:26:05.928Z,19.50
2019-03-28T09:27:05.922Z,19.90
2019-03-28T09:28:05.913Z,19.90
2019-03-28T09:29:05.909Z,21.80
2019-03-28T09:30:05.908Z,20.50
2019-03-28T09:31:18.940Z,18.60
2019-03-28T09:32:05.894Z,19.00
2019-03-28T09:33:05.920Z,24.30
2019-03-28T09:34:05.881Z,21.40
2019-03-28T09:35:05.878Z,21.30
2019-03-28T09:36:05.886Z,21.80
2019-03-28T09:37:05.873Z,20.50
2019-03-28T09:38:05.867Z,20.40
2019-03-28T09:39:05.864Z,19.90
2019-03-28T09:40:05.857Z,20.30
2019-03-28T09:41:05.849Z,23.00
2019-03-28T09:42:05.849Z,21.40
2019-03-28T09:43:05.842Z,20.70
2019-03-28T09:44:05.842Z,20.40
2019-03-28T09:45:05.837Z,21.40
2019-03-28T09:46:05.832Z,21.60
2019-03-28T09:47:05.827Z,19.60
2019-03-28T09:48:05.823Z,17.80
2019-03-28T09:49:05.821Z,19.50
2019-03-28T09:50:05.815Z,25.00
2019-03-28T09:51:05.808Z,23.00
2019-03-28T09:52:05.804Z,21.50
2019-03-28T09:53:05.796Z,20.10
2019-03-28T09:54:05.791Z,21.10
2019-03-28T09:55:05.788Z,16.30
2019-03-28T09:56:05.790Z,17.00
2019-03-28T09:57:05.788Z,18.60
2019-03-28T09:58:05.786Z,22.70
2019-03-28T09:59:05.785Z,19.40
2019-03-28T10:00:05.777Z,16.00
2019-03-28T10:01:05.770Z,20.40
2019-03-28T10:02:05.774Z,17.00
2019-03-28T10:03:05.771Z,17.30
2019-03-28T10:04:06.608Z,20.80
2019-03-28T10:05:05.760Z,17.20
2019-03-28T10:06:05.755Z,17.80
2019-03-28T10:07:05.900Z,17.90
2019-03-28T10:08:05.753Z,18.20
2019-03-28T10:09:05.750Z,18.80
2019-03-28T10:10:08.982Z,17.90
2019-03-28T10:11:05.767Z,16.30
2019-03-28T10:12:05.741Z,20.20
2019-03-28T10:13:05.737Z,17.40
2019-03-28T10:14:05.738Z,17.50
2019-03-28T10:15:05.736Z,19.80
2019-03-28T10:16:05.738Z,20.70
2019-03-28T10:17:05.739Z,20.60
2019-03-28T10:18:05.733Z,24.20
2019-03-28T10:19:05.726Z,18.10
2019-03-28T10:20:05.873Z,22.30
2019-03-28T10:21:05.726Z,23.70
2019-03-28T10:22:05.723Z,26.30
2019-03-28T10:23:05.723Z,25.00
2019-03-28T10:24:05.713Z,27.10
2019-03-28T10:25:05.711Z,25.30
2019-03-28T10:26:06.563Z,30.30
2019-03-28T10:27:05.712Z,32.70
2019-03-28T10:28:05.713Z,25.80
2019-03-28T10:29:05.723Z,25.30
2019-03-28T10:30:05.714Z,23.50
2019-03-28T10:31:15.904Z,23.70
2019-03-28T10:32:06.498Z,30.10
2019-03-28T10:33:05.699Z,28.00
2019-03-28T10:34:05.703Z,26.90
2019-03-28T10:35:07.097Z,27.90
2019-03-28T10:36:05.697Z,27.30
2019-03-28T10:37:05.714Z,31.30
2019-03-28T10:38:05.696Z,24.40
2019-03-28T10:39:05.699Z,28.50
2019-03-28T10:40:05.697Z,29.80
2019-03-28T10:41:05.700Z,28.90
2019-03-28T10:42:05.695Z,25.70
2019-03-28T10:43:05.695Z,30.60
2019-03-28T10:44:05.690Z,33.10
2019-03-28T10:45:05.689Z,30.30
2019-03-28T10:46:05.686Z,32.20
2019-03-28T10:47:05.685Z,33.50
2019-03-28T10:48:05.689Z,29.60
2019-03-28T10:49:05.687Z,28.80
2019-03-28T10:50:05.682Z,27.60
2019-03-28T10:51:05.681Z,30.40
2019-03-28T10:52:05.685Z,27.50
2019-03-28T10:53:05.685Z,30.20
2019-03-28T10:54:18.955Z,40.40
2019-03-28T10:55:05.686Z,41.50
2019-03-28T10:56:05.684Z,38.30
2019-03-28T10:57:13.514Z,36.50
2019-03-28T10:58:17.835Z,35.10
2019-03-28T10:59:05.678Z,34.10
2019-03-28T11:00:05.686Z,30.60
2019-03-28T11:01:05.682Z,29.80
2019-03-28T11:02:05.678Z,31.40
2019-03-28T11:03:05.704Z,32.60
2019-03-28T11:04:05.683Z,26.80
2019-03-28T11:05:05.685Z,22.20
2019-03-28T11:06:06.520Z,23.80
2019-03-28T11:07:05.681Z,22.70
2019-03-28T11:08:05.672Z,25.30
2019-03-28T11:09:05.679Z,20.30
2019-03-28T11:10:05.676Z,23.10
2019-03-28T11:11:05.673Z,20.70
2019-03-28T11:12:05.678Z,22.80
2019-03-28T11:13:09.025Z,23.60
2019-03-28T11:14:05.681Z,23.70
2019-03-28T11:15:05.679Z,19.40
2019-03-28T11:16:05.675Z,19.70
2019-03-28T11:17:05.675Z,24.50
2019-03-28T11:18:05.672Z,22.00
2019-03-28T11:19:05.674Z,20.70
2019-03-28T11:20:05.678Z,24.60
2019-03-28T11:21:05.832Z,21.70
2019-03-28T11:22:05.675Z,22.00
2019-03-28T11:23:05.676Z,22.10
2019-03-28T11:24:05.680Z,23.70
2019-03-28T11:25:05.680Z,21.90
2019-03-28T11:26:05.683Z,19.80
2019-03-28T11:27:05.685Z,19.70
2019-03-28T11:28:05.684Z,20.40
2019-03-28T11:29:05.682Z,20.70
2019-03-28T11:30:05.683Z,21.00
2019-03-28T11:31:05.683Z,17.30
2019-03-28T11:32:05.689Z,15.80
2019-03-28T11:33:06.616Z,18.30
2019-03-28T11:34:05.687Z,15.80
2019-03-28T11:35:06.680Z,16.40
2019-03-28T11:36:05.682Z,14.00
2019-03-28T11:37:05.685Z,17.60
2019-03-28T11:38:05.691Z,16.70
2019-03-28T11:39:05.688Z,14.80
2019-03-28T11:40:09.020Z,14.00
2019-03-28T11:41:05.685Z,13.70
2019-03-28T11:42:05.690Z,15.30
2019-03-28T11:43:05.689Z,14.50
2019-03-28T11:44:05.698Z,14.00
2019-03-28T11:45:08.943Z,12.30
2019-03-28T11:46:05.695Z,13.40
2019-03-28T11:47:05.697Z,10.70
2019-03-28T11:48:05.693Z,11.10
2019-03-28T11:49:05.696Z,11.60
2019-03-28T11:50:05.691Z,13.90
2019-03-28T11:51:05.690Z,13.80
2019-03-28T11:52:05.696Z,11.80
2019-03-28T11:53:05.696Z,15.50
2019-03-28T11:54:05.693Z,12.80
2019-03-28T11:55:05.693Z,13.60
2019-03-28T11:56:05.699Z,16.00
2019-03-28T11:57:05.721Z,12.10
2019-03-28T11:58:05.702Z,14.90
2019-03-28T11:59:06.354Z,15.10
2019-03-28T12:00:05.698Z,13.80
2019-03-28T12:01:05.698Z,14.50
2019-03-28T12:02:18.999Z,17.50
2019-03-28T12:03:05.699Z,14.00
2019-03-28T12:04:05.704Z,13.40
2019-03-28T12:05:05.706Z,13.00
2019-03-28T12:06:05.702Z,13.50
2019-03-28T12:07:05.703Z,13.70
2019-03-28T12:08:05.700Z,12.40
2019-03-28T12:09:05.699Z,11.40
2019-03-28T12:10:05.705Z,11.40
2019-03-28T12:11:05.705Z,11.50
2019-03-28T12:12:05.701Z,12.50
2019-03-28T12:13:05.702Z,15.60
2019-03-28T12:14:05.713Z,13.70
2019-03-28T12:15:05.730Z,14.20
2019-03-28T12:16:05.710Z,14.20
2019-03-28T12:17:05.711Z,11.90
2019-03-28T12:18:05.711Z,14.70
2019-03-28T12:19:05.712Z,15.10
2019-03-28T12:20:05.706Z,13.00
2019-03-28T12:21:05.709Z,14.60
2019-03-28T12:22:05.705Z,15.10
2019-03-28T12:23:05.705Z,14.50
2019-03-28T12:24:05.738Z,17.80
2019-03-28T12:25:05.711Z,14.80
2019-03-28T12:26:05.709Z,12.10
2019-03-28T12:27:05.706Z,13.80
2019-03-28T12:28:05.713Z,15.00
2019-03-28T12:29:06.013Z,14.80
2019-03-28T12:30:05.715Z,12.80
2019-03-28T12:31:05.721Z,14.00
2019-03-28T12:32:13.900Z,15.60
2019-03-28T12:33:05.720Z,14.80
2019-03-28T12:34:05.712Z,14.60
2019-03-28T12:35:05.711Z,14.70
2019-03-28T12:36:05.717Z,15.60
2019-03-28T12:37:05.717Z,18.00
2019-03-28T12:38:05.719Z,13.30
2019-03-28T12:39:05.720Z,14.80
2019-03-28T12:40:05.715Z,15.40
2019-03-28T12:41:05.717Z,14.30
2019-03-28T12:42:05.721Z,18.40
2019-03-28T12:43:05.724Z,14.20
2019-03-28T12:44:05.718Z,16.10
2019-03-28T12:45:05.717Z,13.50
2019-03-28T12:46:05.715Z,17.60
2019-03-28T12:47:05.716Z,18.70
2019-03-28T12:48:05.720Z,18.00
2019-03-28T12:49:05.720Z,17.10
2019-03-28T12:50:05.720Z,18.50
2019-03-28T12:51:05.721Z,16.80
2019-03-28T12:52:05.715Z,21.30